createdAt,value
2023-04-08T00:01:51.832Z,83.0
2023-04-08T00:14:51.823Z,84.0
2023-04-08T00:27:51.809Z,86.0
2023-04-08T00:40:51.843Z,85.0
2023-04-08T00:53:51.843Z,83.0
2023-04-08T01:06:51.848Z,83.0
2023-04-08T01:19:51.901Z,84.0
2023-04-08T01:32:51.929Z,84.0
2023-04-08T01:45:51.899Z,84.0
2023-04-08T01:58:52.039Z,84.0
2023-04-08T02:11:51.951Z,84.0
2023-04-08T02:24:51.939Z,84.0
2023-04-08T02:37:51.961Z,84.0
2023-04-08T02:50:51.994Z,85.0
2023-04-08T03:03:52.063Z,85.0
2023-04-08T03:16:52.050Z,84.0
2023-04-08T03:29:52.029Z,83.0
2023-04-08T03:42:52.037Z,83.0
2023-04-08T03:55:52.069Z,83.0
2023-04-08T04:08:52.158Z,83.0
2023-04-08T04:21:52.178Z,84.0
2023-04-08T04:34:52.291Z,85.0
2023-04-08T04:48:52.474Z,87.0
2023-04-08T05:02:52.484Z,87.0
2023-04-08T05:17:52.370Z,85.0
2023-04-08T05:31:52.505Z,84.0
2023-04-08T05:45:52.406Z,83.0
2023-04-08T05:59:52.493Z,77.0
2023-04-08T06:13:52.520Z,72.0
2023-04-08T06:27:52.634Z,72.0
2023-04-08T06:41:52.491Z,64.0
2023-04-08T06:55:52.501Z,64.0
2023-04-08T07:09:52.496Z,64.0
2023-04-08T07:23:52.544Z,63.0
2023-04-08T07:37:52.585Z,53.0
2023-04-08T07:51:52.675Z,46.0
2023-04-08T08:05:52.674Z,43.0
2023-04-08T08:19:52.698Z,51.0
2023-04-08T08:33:52.891Z,48.0
2023-04-08T08:47:52.748Z,44.0
2023-04-08T09:01:52.783Z,37.0
2023-04-08T09:15:52.749Z,35.0
2023-04-08T09:29:52.812Z,35.0
2023-04-08T09:43:52.914Z,33.0
2023-04-08T09:57:52.858Z,34.0
2023-04-08T10:11:52.913Z,30.0
2023-04-08T10:25:52.951Z,31.0
2023-04-08T10:39:52.992Z,30.0
2023-04-08T10:53:53.141Z,32.0
2023-04-08T11:07:53.051Z,32.0
2023-04-08T11:21:53.039Z,34.0
2023-04-08T11:35:53.165Z,36.0
2023-04-08T11:49:53.074Z,37.0
2023-04-08T12:03:53.267Z,36.0
2023-04-08T12:17:53.221Z,35.0
2023-04-08T12:31:53.231Z,37.0
2023-04-08T12:45:53.229Z,39.0
2023-04-08T12:59:53.221Z,39.0
2023-04-08T13:13:53.222Z,39.0
2023-04-08T13:27:53.220Z,39.0
2023-04-08T13:41:53.224Z,40.0
2023-04-08T13:55:53.245Z,42.0
2023-04-08T14:09:53.230Z,44.0
2023-04-08T14:23:53.246Z,47.0
2023-04-08T14:37:53.250Z,58.0
2023-04-08T14:51:53.579Z,64.0
2023-04-08T15:05:53.305Z,71.0
2023-04-08T15:19:53.510Z,67.0
2023-04-08T15:33:53.649Z,64.0
2023-04-08T15:47:53.580Z,69.0
2023-04-08T16:01:53.468Z,69.0
2023-04-08T16:15:53.378Z,70.0
2023-04-08T16:29:53.370Z,70.0
2023-04-08T16:43:53.399Z,72.0
2023-04-08T16:57:53.403Z,73.0
2023-04-08T17:15:53.497Z,72.0
2023-04-08T18:11:53.489Z,77.0
2023-04-08T19:21:53.625Z,76.0
2023-04-08T20:35:53.823Z,67.0
2023-04-08T20:57:53.771Z,67.0
